Time;durP1;ratioP1;P1;durP2;ratioP2;P2;SDS_P1;SDS_P2;PMS_P1;PMS_P2;Temp;Humidity;BMP_temperature;BMP_pressure;BME280_temperature;BME280_humidity;BME280_pressure;Samples;Min_cycle;Max_cycle;Signal;HPM_P1;HPM_P2
2021/11/04 00:24:52;;;;;;;3.28;2.85;;;;;;;7.28;100.00;100242.06;6302362;22;20034;-75
2021/11/04 00:27:19;;;;;;;4.53;2.67;;;;;;;7.29;100.00;100241.19;6302561;22;20610;-78
2021/11/04 00:29:45;;;;;;;1.88;1.80;;;;;;;7.29;100.00;100240.34;6300976;22;20030;-77
2021/11/04 00:32:12;;;;;;;2.33;2.22;;;;;;;7.28;100.00;100246.41;6302826;22;20593;-75
2021/11/04 00:34:38;;;;;;;1.48;1.42;;;;;;;7.29;100.00;100241.19;6302710;22;20023;-75
2021/11/04 00:37:05;;;;;;;2.13;1.75;;;;;;;7.31;100.00;100244.56;6302220;22;20015;-74
2021/11/04 00:39:32;;;;;;;2.85;2.75;;;;;;;7.31;100.00;100231.59;6276313;22;20026;-75
2021/11/04 00:41:58;;;;;;;1.80;1.80;;;;;;;7.28;100.00;100229.09;6301973;22;20019;-72
2021/11/04 00:44:24;;;;;;;4.07;3.83;;;;;;;7.31;100.00;100218.59;6302440;22;20104;-74
2021/11/04 00:46:50;;;;;;;3.00;2.78;;;;;;;7.27;100.00;100227.38;6303790;22;20764;-75
2021/11/04 00:49:16;;;;;;;3.10;2.83;;;;;;;7.27;100.00;100236.91;6303774;22;20030;-74
2021/11/04 00:51:43;;;;;;;2.55;2.45;;;;;;;7.28;100.00;100236.88;6306813;22;20022;-74
2021/11/04 00:54:09;;;;;;;4.20;3.72;;;;;;;7.31;100.00;100241.97;6316570;22;20026;-78
2021/11/04 00:56:35;;;;;;;2.67;2.58;;;;;;;7.31;100.00;100218.59;6314756;22;20022;-76
2021/11/04 00:59:01;;;;;;;4.07;3.70;;;;;;;7.29;100.00;100230.78;6303086;22;20015;-76
2021/11/04 01:01:27;;;;;;;4.47;4.07;;;;;;;7.30;100.00;100242.84;6302705;22;20019;-76
2021/11/04 01:03:54;;;;;;;3.50;3.30;;;;;;;7.36;100.00;100233.16;6304351;22;20029;-75
2021/11/04 01:06:20;;;;;;;4.57;3.40;;;;;;;7.34;100.00;100243.59;6303685;22;20019;-75
2021/11/04 01:08:47;;;;;;;2.30;2.08;;;;;;;7.33;100.00;100232.34;6303826;22;20038;-76
2021/11/04 01:11:13;;;;;;;3.10;2.92;;;;;;;7.37;100.00;100230.50;6302903;22;20027;-77
2021/11/04 01:13:40;;;;;;;3.22;2.45;;;;;;;7.34;100.00;100218.47;6302273;22;20016;-76
2021/11/04 01:16:07;;;;;;;5.13;3.78;;;;;;;7.40;100.00;100226.94;6305068;22;20049;-77
2021/11/04 01:18:33;;;;;;;1.55;1.55;;;;;;;7.41;100.00;100229.50;6305893;22;20098;-76
2021/11/04 01:20:59;;;;;;;1.48;1.40;;;;;;;7.43;100.00;100217.28;6304303;22;20039;-77
2021/11/04 01:23:25;;;;;;;1.58;1.52;;;;;;;7.42;100.00;100227.75;6304428;22;20517;-77
2021/11/04 01:25:52;;;;;;;3.10;2.40;;;;;;;7.46;100.00;100244.94;6302498;22;20023;-78
2021/11/04 01:28:18;;;;;;;2.28;1.75;;;;;;;7.45;100.00;100230.25;6309107;22;20094;-76
2021/11/04 01:30:44;;;;;;;2.20;2.10;;;;;;;7.46;100.00;100239.72;6303224;22;20046;-77
2021/11/04 01:33:10;;;;;;;1.88;1.77;;;;;;;7.44;100.00;100233.72;6303485;22;20080;-77
2021/11/04 01:35:36;;;;;;;0.55;0.55;;;;;;;7.48;100.00;100235.31;6303241;22;20016;-78
2021/11/04 01:38:03;;;;;;;2.72;2.60;;;;;;;7.46;100.00;100227.56;6276127;22;20015;-77
2021/11/04 01:40:30;;;;;;;2.35;2.25;;;;;;;7.46;100.00;100234.53;6303460;22;20020;-79
2021/11/04 01:42:57;;;;;;;1.30;1.30;;;;;;;7.50;100.00;100234.34;6302749;22;20020;-77
2021/11/04 01:45:23;;;;;;;2.88;2.72;;;;;;;7.48;100.00;100230.13;6303334;22;20446;-79
2021/11/04 01:47:51;;;;;;;1.20;1.20;;;;;;;7.50;100.00;100234.34;6301139;22;20475;-80
2021/11/04 01:50:18;;;;;;;2.65;2.55;;;;;;;7.50;100.00;100238.69;6303265;22;20363;-77
2021/11/04 01:52:45;;;;;;;2.65;2.55;;;;;;;7.55;100.00;100231.59;6302714;22;20026;-79
2021/11/04 01:55:22;;;;;;;2.53;2.42;;;;;;;7.58;100.00;100234.09;6301393;22;20348;-78
2021/11/04 01:57:48;;;;;;;3.80;3.42;;;;;;;7.64;100.00;100236.47;6301241;22;20045;-79
2021/11/04 02:00:18;;;;;;;1.58;1.48;;;;;;;7.65;100.00;100248.56;6303479;22;20019;-80
2021/11/04 02:02:46;;;;;;;1.55;1.55;;;;;;;7.66;100.00;100252.81;6302758;22;20015;-80
2021/11/04 02:05:16;;;;;;;2.42;2.22;;;;;;;7.64;100.00;100246.84;6307679;22;20553;-80
2021/11/04 02:08:22;;;;;;;3.88;3.05;;;;;;;7.66;100.00;100239.84;6303278;22;20015;-78
2021/11/04 02:10:51;;;;;;;1.20;1.20;;;;;;;7.65;100.00;100235.56;6231641;22;20039;-79
2021/11/04 02:13:23;;;;;;;5.50;1.45;;;;;;;7.69;100.00;100234.56;6302313;22;20019;-78
2021/11/04 02:15:52;;;;;;;1.70;1.70;;;;;;;7.71;100.00;100237.94;6303736;22;20022;-79
2021/11/04 02:18:19;;;;;;;3.15;2.85;;;;;;;7.74;100.00;100243.00;6303506;22;20105;-79
2021/11/04 02:20:53;;;;;;;3.17;2.97;;;;;;;7.79;100.00;100241.06;6303476;22;20019;-80
2021/11/04 02:23:25;;;;;;;2.40;2.30;;;;;;;7.80;100.00;100230.63;6303406;22;20413;-77
2021/11/04 02:25:51;;;;;;;3.13;2.92;;;;;;;7.83;100.00;100238.31;6302764;22;20019;-78
2021/11/04 02:28:19;;;;;;;2.15;2.05;;;;;;;7.88;100.00;100253.75;6303924;22;20019;-78
2021/11/04 02:30:46;;;;;;;2.15;2.05;;;;;;;7.89;100.00;100239.81;6277213;22;20375;-79
2021/11/04 02:33:12;;;;;;;1.73;1.73;;;;;;;7.84;100.00;100241.78;6303387;22;20019;-78
2021/11/04 02:35:38;;;;;;;2.45;2.35;;;;;;;7.91;100.00;100244.97;6303430;22;20015;-79
2021/11/04 02:38:04;;;;;;;2.78;2.67;;;;;;;7.94;100.00;100235.31;6303004;22;20102;-78
2021/11/04 02:40:30;;;;;;;2.08;1.98;;;;;;;7.94;100.00;100245.72;6277574;22;20092;-79
2021/11/04 02:42:56;;;;;;;1.65;1.65;;;;;;;7.93;100.00;100249.22;6303094;22;20467;-80
2021/11/04 02:45:23;;;;;;;1.27;1.17;;;;;;;7.97;100.00;100258.59;6304848;22;20111;-78
2021/11/04 02:47:49;;;;;;;2.03;1.95;;;;;;;7.93;100.00;100254.41;6303027;22;20521;-80
2021/11/04 02:50:16;;;;;;;1.80;1.70;;;;;;;7.97;100.00;100256.00;6303529;22;20479;-79
2021/11/04 02:52:43;;;;;;;4.15;3.85;;;;;;;7.95;100.00;100246.56;6303287;22;20019;-78
2021/11/04 02:55:09;;;;;;;2.38;2.28;;;;;;;7.97;100.00;100250.81;6304522;22;20061;-78
2021/11/04 02:57:45;;;;;;;3.33;3.22;;;;;;;8.02;100.00;100264.47;6304704;22;20023;-78
2021/11/04 03:00:13;;;;;;;3.92;3.33;;;;;;;8.05;100.00;100258.31;6302995;22;20479;-78
2021/11/04 03:02:39;;;;;;;3.38;3.17;;;;;;;8.04;100.00;100251.41;6304799;22;20027;-79
2021/11/04 03:05:06;;;;;;;2.47;2.38;;;;;;;8.04;100.00;100257.47;6304170;22;20501;-80
2021/11/04 03:07:32;;;;;;;3.58;3.38;;;;;;;8.08;100.00;100269.41;6304860;22;20026;-79
2021/11/04 03:09:58;;;;;;;5.32;4.78;;;;;;;8.12;100.00;100264.94;6302833;22;20061;-80
2021/11/04 03:12:24;;;;;;;4.40;4.05;;;;;;;8.07;100.00;100269.50;6303237;22;20015;-80
2021/11/04 03:14:50;;;;;;;2.78;2.67;;;;;;;8.14;100.00;100273.56;6302088;22;20363;-80
2021/11/04 03:17:16;;;;;;;1.60;1.60;;;;;;;8.14;100.00;100279.63;6303069;22;20019;-77
2021/11/04 03:19:42;;;;;;;3.95;3.40;;;;;;;8.15;100.00;100270.88;6304453;22;20026;-79
2021/11/04 03:22:08;;;;;;;4.03;3.72;;;;;;;8.18;100.00;100270.75;6302835;22;20098;-79
2021/11/04 03:24:33;;;;;;;3.03;2.92;;;;;;;8.22;100.00;100277.56;6303035;22;20153;-79
2021/11/04 03:27:01;;;;;;;4.22;4.03;;;;;;;8.21;100.00;100282.84;6310026;22;20035;-79
2021/11/04 03:29:31;;;;;;;3.72;3.53;;;;;;;8.19;100.00;100279.41;6306441;22;20090;-79
2021/11/04 03:31:57;;;;;;;2.25;2.15;;;;;;;8.15;100.00;100281.28;6305283;22;20022;-79
2021/11/04 03:34:24;;;;;;;3.45;3.17;;;;;;;8.13;100.00;100285.72;6303412;22;20023;-79
2021/11/04 03:36:50;;;;;;;3.90;3.63;;;;;;;8.14;100.00;100287.41;6302568;22;20047;-79
2021/11/04 03:39:18;;;;;;;2.67;2.58;;;;;;;8.09;100.00;100291.94;6302722;22;20023;-79
2021/11/04 03:41:44;;;;;;;2.65;2.45;;;;;;;8.09;100.00;100289.31;6304201;22;20021;-80
2021/11/04 03:44:10;;;;;;;2.78;2.65;;;;;;;8.14;100.00;100289.16;6303773;22;20094;-81
2021/11/04 03:46:36;;;;;;;3.13;2.95;;;;;;;8.11;100.00;100299.69;6302817;22;20059;-79
2021/11/04 03:49:02;;;;;;;2.30;2.13;;;;;;;8.16;100.00;100302.94;6302356;22;20015;-79
2021/11/04 03:51:29;;;;;;;4.20;3.92;;;;;;;8.15;100.00;100296.88;6302729;22;20015;-78
2021/11/04 03:53:55;;;;;;;4.55;4.05;;;;;;;8.20;100.00;100307.13;6302120;22;20118;-78
2021/11/04 03:56:21;;;;;;;3.95;3.70;;;;;;;8.15;100.00;100296.88;6251555;22;20573;-79
2021/11/04 03:58:47;;;;;;;2.55;2.45;;;;;;;8.23;100.00;100301.81;6302347;22;20373;-79
2021/11/04 04:01:13;;;;;;;12.85;4.78;;;;;;;8.27;100.00;100317.25;6302296;22;20019;-79
2021/11/04 04:03:40;;;;;;;2.35;2.28;;;;;;;8.29;100.00;100314.63;6302545;22;20019;-78
2021/11/04 04:06:07;;;;;;;2.75;2.17;;;;;;;8.23;100.00;100315.66;6302096;22;20027;-79
2021/11/04 04:08:38;;;;;;;7.30;4.55;;;;;;;8.24;100.00;100321.72;6302487;22;20027;-78
2021/11/04 04:11:05;;;;;;;2.80;2.55;;;;;;;8.21;100.00;100316.63;6277107;22;20026;-81
2021/11/04 04:13:31;;;;;;;2.50;2.40;;;;;;;8.26;100.00;100323.34;6304317;22;20019;-79
2021/11/04 04:15:57;;;;;;;4.63;2.75;;;;;;;8.31;100.00;100324.03;6302135;22;20113;-80
2021/11/04 04:18:23;;;;;;;4.22;3.83;;;;;;;8.34;99.71;100331.72;6303913;22;20015;-78
2021/11/04 04:20:50;;;;;;;3.97;3.58;;;;;;;8.30;99.86;100327.56;6302173;22;20022;-81
2021/11/04 04:23:17;;;;;;;3.47;3.28;;;;;;;8.29;99.84;100332.81;6306399;22;20027;-79
2021/11/04 04:25:43;;;;;;;3.78;3.55;;;;;;;8.32;99.71;100345.72;6315159;22;20023;-78
2021/11/04 04:28:09;;;;;;;5.43;4.00;;;;;;;8.31;100.00;100339.66;6318358;22;20015;-79
2021/11/04 04:30:38;;;;;;;4.15;3.83;;;;;;;8.30;99.84;100344.94;6320043;22;20092;-78
2021/11/04 04:33:04;;;;;;;3.85;3.63;;;;;;;8.25;99.84;100346.81;6315212;22;20011;-79
2021/11/04 04:35:30;;;;;;;3.92;3.63;;;;;;;8.22;99.94;100342.56;6304425;22;20022;-80
2021/11/04 04:37:58;;;;;;;9.55;4.10;;;;;;;8.17;99.98;100347.13;6303237;22;20021;-79
2021/11/04 04:40:24;;;;;;;3.13;2.97;;;;;;;8.17;100.00;100352.31;6302654;22;20011;-80
2021/11/04 04:42:50;;;;;;;4.82;4.50;;;;;;;8.21;99.96;100353.88;6303857;22;20073;-78
2021/11/04 04:45:16;;;;;;;4.93;4.53;;;;;;;8.25;99.73;100349.41;6301712;22;20467;-79
2021/11/04 04:47:42;;;;;;;3.58;3.35;;;;;;;8.22;99.82;100354.72;6301822;22;20026;-78
2021/11/04 04:50:09;;;;;;;3.13;2.92;;;;;;;8.17;99.60;100352.31;6301814;22;20025;-78
2021/11/04 04:52:35;;;;;;;3.72;3.05;;;;;;;8.25;99.04;100355.47;6303575;22;20026;-79
2021/11/04 04:55:04;;;;;;;3.03;2.83;;;;;;;8.29;99.48;100362.28;6303273;22;20077;-79
2021/11/04 04:57:30;;;;;;;4.35;3.83;;;;;;;8.34;99.17;100360.34;6303716;22;20098;-77
2021/11/04 04:59:57;;;;;;;3.45;3.25;;;;;;;8.36;98.82;100358.56;6303187;22;20012;-77
2021/11/04 05:02:24;;;;;;;7.18;4.00;;;;;;;8.36;98.57;100366.34;6303142;22;20015;-77
2021/11/04 05:04:51;;;;;;;2.90;2.70;;;;;;;8.38;98.35;100372.34;6303318;22;20015;-78
2021/11/04 05:07:17;;;;;;;8.38;2.97;;;;;;;8.39;97.79;100362.78;6303267;22;20019;-78
2021/11/04 05:09:43;;;;;;;2.95;2.83;;;;;;;8.36;98.02;100366.34;6301863;22;20027;-79
2021/11/04 05:12:09;;;;;;;4.72;4.35;;;;;;;8.34;98.36;100370.75;6302625;22;20023;-78
2021/11/04 05:14:35;;;;;;;2.55;2.38;;;;;;;8.35;98.07;100382.84;6301915;22;20019;-79
2021/11/04 05:17:01;;;;;;;3.17;2.97;;;;;;;8.41;97.53;100375.75;6301613;22;20020;-78
2021/11/04 05:19:27;;;;;;;2.83;2.60;;;;;;;8.43;97.54;100381.72;6301908;22;20058;-78
2021/11/04 05:21:53;;;;;;;4.00;3.67;;;;;;;8.46;96.93;100394.63;6303414;22;20062;-79
2021/11/04 05:24:19;;;;;;;2.90;2.70;;;;;;;8.46;96.60;100386.81;6303409;22;20023;-78
2021/11/04 05:26:47;;;;;;;3.33;3.13;;;;;;;8.47;96.83;100402.38;6311252;22;20029;-80
2021/11/04 05:29:13;;;;;;;5.05;2.97;;;;;;;8.44;97.54;100396.44;6304966;22;20022;-80
2021/11/04 05:31:40;;;;;;;5.03;2.67;;;;;;;8.46;97.15;100395.47;6277713;22;20011;-81
2021/11/04 05:34:06;;;;;;;3.53;3.25;;;;;;;8.43;96.92;100411.19;6304616;22;20019;-80
2021/11/04 05:36:35;;;;;;;2.47;2.38;;;;;;;8.46;96.76;100415.44;6302968;22;20096;-82
2021/11/04 05:39:01;;;;;;;3.42;3.15;;;;;;;8.47;96.71;100410.19;6302439;22;20061;-78
2021/11/04 05:41:27;;;;;;;3.22;3.03;;;;;;;8.47;96.38;100411.94;6305380;22;20088;-83
2021/11/04 05:43:53;;;;;;;4.35;4.03;;;;;;;8.48;95.43;100413.63;6304402;22;20019;-78
2021/11/04 05:46:19;;;;;;;4.78;4.47;;;;;;;8.53;93.99;100424.72;6250953;22;20060;-80
2021/11/04 05:48:45;;;;;;;4.15;3.85;;;;;;;8.51;93.82;100411.75;6306141;22;20023;-80
2021/11/04 05:51:11;;;;;;;8.50;5.82;;;;;;;8.55;93.63;100420.28;6306498;22;20026;-81
2021/11/04 05:53:37;;;;;;;4.00;3.72;;;;;;;8.52;94.48;100416.06;6307524;22;20015;-80
2021/11/04 05:56:03;;;;;;;3.78;3.38;;;;;;;8.55;93.15;100425.50;6306164;22;20045;-78
2021/11/04 05:58:29;;;;;;;2.83;2.72;;;;;;;8.53;93.23;100416.91;6308115;22;20031;-80
2021/11/04 06:00:55;;;;;;;3.63;3.42;;;;;;;8.54;93.28;100426.41;6283354;22;20019;-80
2021/11/04 06:03:22;;;;;;;4.22;3.75;;;;;;;8.55;92.46;100433.31;6309373;22;20035;-80
2021/11/04 06:05:48;;;;;;;2.53;2.33;;;;;;;8.58;92.28;100425.38;6308193;22;20023;-81
2021/11/04 06:08:14;;;;;;;3.97;3.67;;;;;;;8.57;92.36;100436.72;6308374;22;20020;-80
2021/11/04 06:10:41;;;;;;;2.60;2.40;;;;;;;8.59;92.01;100440.09;6307497;22;20019;-78
2021/11/04 06:13:07;;;;;;;2.97;2.78;;;;;;;8.57;92.83;100444.53;6301231;22;20069;-80
2021/11/04 06:15:33;;;;;;;6.10;5.55;;;;;;;8.59;92.20;100453.97;6306800;22;20010;-80
2021/11/04 06:17:59;;;;;;;3.15;2.95;;;;;;;8.63;91.94;100445.13;6308070;22;20037;-79
2021/11/04 06:20:25;;;;;;;4.15;3.75;;;;;;;8.63;91.44;100452.09;6306648;22;20017;-77
2021/11/04 06:22:51;;;;;;;3.70;3.50;;;;;;;8.65;91.45;100458.09;6303569;22;20042;-75
2021/11/04 06:25:18;;;;;;;9.40;5.45;;;;;;;8.64;91.55;100465.03;6304268;22;20455;-78
2021/11/04 06:27:44;;;;;;;3.05;2.85;;;;;;;8.60;92.01;100460.03;6304536;22;20427;-77
2021/11/04 06:30:10;;;;;;;3.15;2.97;;;;;;;8.66;92.15;100472.81;6281984;22;20015;-76
2021/11/04 06:32:37;;;;;;;5.70;4.95;;;;;;;8.66;92.86;100476.25;6303583;22;20023;-77
2021/11/04 06:35:04;;;;;;;4.28;3.95;;;;;;;8.61;92.29;100474.72;6301786;22;20023;-78
2021/11/04 06:37:30;;;;;;;6.60;4.57;;;;;;;8.63;91.96;100472.91;6301737;22;20019;-76
2021/11/04 06:39:57;;;;;;;5.25;3.58;;;;;;;8.62;91.59;100485.06;6303411;22;20042;-77
2021/11/04 06:42:23;;;;;;;4.07;3.30;;;;;;;8.62;92.33;100484.22;6304062;22;20359;-76
2021/11/04 06:44:49;;;;;;;3.55;3.35;;;;;;;8.65;92.62;100484.97;6300391;22;20015;-75
2021/11/04 06:47:39;;;;;;;2.55;2.45;;;;;;;8.63;91.95;100483.31;6303489;22;20518;-75
2021/11/04 06:50:05;;;;;;;2.85;2.75;;;;;;;8.63;91.40;100478.13;6292707;22;20023;-75
2021/11/04 06:52:43;;;;;;;6.25;4.28;;;;;;;8.64;90.45;100490.22;6302308;22;20023;-76
2021/11/04 06:55:09;;;;;;;3.78;3.47;;;;;;;8.66;89.99;100502.28;6277771;22;20018;-76
2021/11/04 06:57:37;;;;;;;3.05;2.85;;;;;;;8.68;90.69;100494.41;6276414;22;20064;-77
2021/11/04 07:00:07;;;;;;;3.97;3.78;;;;;;;8.72;90.57;100488.19;6301696;22;20022;-77
2021/11/04 07:02:36;;;;;;;2.80;2.67;;;;;;;8.79;89.16;100497.47;6301332;22;20067;-77
2021/11/04 07:05:03;;;;;;;3.60;3.35;;;;;;;9.40;85.59;100486.38;6303109;22;20046;-76
2021/11/04 07:07:32;;;;;;;2.00;1.98;;;;;;;9.39;84.53;100489.88;6301583;22;20358;-75
2021/11/04 07:09:59;;;;;;;2.38;2.25;;;;;;;9.02;85.45;100480.97;6302003;22;20115;-78
2021/11/04 07:12:25;;;;;;;5.10;2.63;;;;;;;8.99;87.03;100488.91;6276616;22;20044;-77
2021/11/04 07:14:52;;;;;;;2.38;2.28;;;;;;;8.81;86.96;100506.91;6303694;22;20037;-75
2021/11/04 07:17:19;;;;;;;6.13;5.50;;;;;;;8.77;86.68;100518.34;6302216;22;20421;-74
2021/11/04 07:19:46;;;;;;;2.40;2.30;;;;;;;8.77;86.84;100512.28;6302775;22;20371;-76
2021/11/04 07:22:22;;;;;;;2.90;2.70;;;;;;;8.82;86.84;100515.56;6302844;22;20019;-76
2021/11/04 07:24:50;;;;;;;4.95;4.30;;;;;;;8.83;86.52;100520.72;6302357;22;20416;-77
2021/11/04 07:27:17;;;;;;;4.47;3.00;;;;;;;8.78;85.90;100516.59;6304825;22;20409;-76
2021/11/04 07:29:49;;;;;;;4.88;4.40;;;;;;;8.81;86.08;100512.13;6300394;22;20529;-76
2021/11/04 07:32:16;;;;;;;2.13;1.98;;;;;;;8.81;86.17;100519.94;6302514;22;20050;-76
2021/11/04 07:34:43;;;;;;;6.15;5.43;;;;;;;8.87;84.99;100513.63;6302625;22;20060;-75
2021/11/04 07:37:11;;;;;;;3.05;2.85;;;;;;;8.87;84.68;100508.44;6301256;22;20098;-76
2021/11/04 07:39:39;;;;;;;2.78;2.60;;;;;;;8.93;86.12;100528.22;6301269;22;20019;-79
2021/11/04 07:42:08;;;;;;;5.00;3.30;;;;;;;8.91;85.31;100512.63;6301317;22;20455;-78
2021/11/04 07:44:35;;;;;;;1.60;1.60;;;;;;;8.88;85.25;100518.81;6300811;22;20015;-77
2021/11/04 07:47:01;;;;;;;3.90;3.60;;;;;;;8.97;85.25;100529.75;6302479;22;20532;-76
2021/11/04 07:49:28;;;;;;;3.28;3.08;;;;;;;9.04;85.03;100528.63;6301189;22;20031;-76
2021/11/04 07:51:59;;;;;;;8.00;3.80;;;;;;;8.95;85.14;100529.84;6303022;22;20415;-76
2021/11/04 07:54:31;;;;;;;15.35;4.60;;;;;;;8.98;85.49;100550.56;6302753;22;20019;-76
2021/11/04 07:56:58;;;;;;;3.50;3.30;;;;;;;8.92;84.46;100542.97;6303437;22;20019;-76
2021/11/04 07:59:27;;;;;;;4.93;2.85;;;;;;;8.91;83.60;100525.66;6302017;22;20090;-76
2021/11/04 08:01:55;;;;;;;2.95;2.72;;;;;;;9.24;81.71;100541.75;6309872;22;20278;-75
2021/11/04 08:04:22;;;;;;;4.65;4.35;;;;;;;9.34;79.36;100543.97;6312661;22;20518;-75
2021/11/04 08:06:48;;;;;;;3.05;2.80;;;;;;;9.18;81.61;100542.00;6310671;22;20021;-75
2021/11/04 08:09:14;;;;;;;2.75;2.65;;;;;;;10.17;76.81;100552.78;6300627;22;20015;-76
2021/11/04 08:11:41;;;;;;;2.95;2.75;;;;;;;9.90;77.08;100553.88;6303116;22;20015;-76
2021/11/04 08:14:09;;;;;;;1.85;1.85;;;;;;;9.93;78.15;100540.72;6301087;22;20020;-76
2021/11/04 08:16:35;;;;;;;4.45;4.03;;;;;;;11.15;72.25;100544.09;6300041;22;20011;-76
2021/11/04 08:19:01;;;;;;;2.67;2.55;;;;;;;11.26;71.59;100544.41;6299345;22;20106;-75
2021/11/04 08:21:27;;;;;;;3.08;2.80;;;;;;;12.24;68.05;100549.25;6301103;22;20011;-76
2021/11/04 08:23:53;;;;;;;4.13;3.75;;;;;;;12.24;67.13;100554.47;6303031;22;20023;-76
2021/11/04 08:26:19;;;;;;;3.08;2.88;;;;;;;11.23;68.41;100540.19;6303305;22;20101;-76
2021/11/04 08:28:45;;;;;;;2.28;2.17;;;;;;;11.68;68.19;100549.41;6301104;22;20019;-76
2021/11/04 08:31:11;;;;;;;3.65;3.35;;;;;;;11.59;68.30;100545.44;6302072;22;20094;-77
2021/11/04 08:33:37;;;;;;;3.40;3.15;;;;;;;12.02;66.74;100559.94;6300851;22;20028;-76
2021/11/04 08:36:04;;;;;;;2.92;2.72;;;;;;;12.06;65.63;100556.25;6302806;22;20072;-75
2021/11/04 08:38:30;;;;;;;3.13;2.92;;;;;;;11.93;66.91;100556.03;6301928;22;20015;-75
2021/11/04 08:40:56;;;;;;;2.53;2.33;;;;;;;11.54;68.22;100567.53;6301650;22;20015;-78
2021/11/04 08:43:23;;;;;;;3.22;2.92;;;;;;;10.58;71.77;100577.09;6301976;22;20026;-74
2021/11/04 08:45:52;;;;;;;2.50;2.30;;;;;;;10.15;72.53;100580.69;6300319;22;20088;-77
2021/11/04 08:48:22;;;;;;;2.25;2.15;;;;;;;9.88;73.49;100571.38;6300929;22;20019;-77
2021/11/04 08:50:49;;;;;;;2.50;2.33;;;;;;;9.68;76.68;100581.75;6275155;22;20011;-76
2021/11/04 08:53:15;;;;;;;2.05;1.90;;;;;;;9.40;76.94;100589.75;6299390;22;20019;-75
2021/11/04 08:55:45;;;;;;;3.70;3.15;;;;;;;9.22;76.04;100583.50;6302025;22;20075;-75
2021/11/04 08:58:12;;;;;;;2.28;2.17;;;;;;;9.18;76.05;100581.06;6301614;22;20019;-76
2021/11/04 09:00:38;;;;;;;1.80;1.70;;;;;;;9.07;77.01;100591.88;6298518;22;20046;-75
2021/11/04 09:03:04;;;;;;;1.77;1.73;;;;;;;9.00;77.16;100595.59;6297566;22;20019;-75
2021/11/04 09:05:31;;;;;;;1.33;1.33;;;;;;;9.03;76.81;100603.31;6298233;22;20023;-74
2021/11/04 09:07:58;;;;;;;4.30;3.13;;;;;;;8.98;77.34;100605.25;6300106;22;20024;-74
2021/11/04 09:10:26;;;;;;;2.10;2.00;;;;;;;8.95;78.13;100613.16;6300351;22;20054;-74
2021/11/04 09:12:52;;;;;;;6.13;2.67;;;;;;;8.96;78.79;100622.69;6300700;22;20421;-75
2021/11/04 09:15:18;;;;;;;5.25;2.63;;;;;;;8.98;77.70;100623.47;6299220;22;20019;-75
2021/11/04 09:17:48;;;;;;;2.65;2.45;;;;;;;8.94;77.16;100621.88;6300550;22;20065;-75
2021/11/04 09:20:16;;;;;;;2.92;2.67;;;;;;;8.92;77.57;100617.63;6297373;22;20026;-75
2021/11/04 09:22:44;;;;;;;1.75;1.70;;;;;;;9.00;77.22;100632.06;6300698;22;20015;-75
2021/11/04 09:25:10;;;;;;;1.73;1.65;;;;;;;9.10;76.90;100623.03;6303085;22;20474;-75
2021/11/04 09:27:36;;;;;;;1.35;1.35;;;;;;;9.16;77.64;100633.22;6277710;22;20019;-76
2021/11/04 09:30:03;;;;;;;3.45;3.25;;;;;;;9.28;76.15;100632.78;6302646;22;20402;-76
2021/11/04 09:32:29;;;;;;;2.45;2.35;;;;;;;9.40;75.93;100653.16;6300259;22;20031;-75
2021/11/04 09:34:59;;;;;;;3.00;2.28;;;;;;;9.43;76.71;100645.22;6297791;22;20015;-74
2021/11/04 09:37:25;;;;;;;1.80;1.80;;;;;;;9.55;75.35;100661.31;6298164;22;20023;-76
2021/11/04 09:39:52;;;;;;;4.82;2.10;;;;;;;9.65;75.29;100654.84;6273851;22;20026;-75
2021/11/04 09:42:19;;;;;;;3.17;2.08;;;;;;;9.73;74.81;100645.81;6298171;22;20015;-76
2021/11/04 09:44:47;;;;;;;2.58;2.45;;;;;;;9.99;73.98;100647.41;6297772;22;20043;-76
2021/11/04 09:47:14;;;;;;;1.65;1.55;;;;;;;10.27;72.55;100645.44;6271731;22;20058;-77
2021/11/04 09:49:40;;;;;;;1.85;1.75;;;;;;;10.27;72.92;100645.44;6299899;22;20015;-75
2021/11/04 09:52:06;;;;;;;1.42;1.42;;;;;;;10.05;72.96;100651.53;6301597;22;20416;-77
2021/11/04 09:54:32;;;;;;;1.85;1.70;;;;;;;9.93;74.33;100658.94;6300886;22;20506;-75
2021/11/04 09:56:58;;;;;;;3.13;2.92;;;;;;;10.03;73.54;100656.81;6298324;22;20015;-74
2021/11/04 09:59:24;;;;;;;2.08;1.98;;;;;;;9.89;74.42;100664.31;6273092;22;20023;-74
2021/11/04 10:01:50;;;;;;;1.35;1.35;;;;;;;9.92;74.15;100656.38;6301084;22;20145;-75
2021/11/04 10:04:30;;;;;;;2.22;2.13;;;;;;;9.69;74.75;100670.31;6302688;22;20015;-75
2021/11/04 10:06:56;;;;;;;2.72;2.58;;;;;;;9.69;74.31;100664.25;6301541;22;20084;-75
2021/11/04 10:09:26;;;;;;;4.38;3.30;;;;;;;9.73;74.61;100665.84;6277099;22;20023;-75
2021/11/04 10:11:52;;;;;;;1.90;1.80;;;;;;;9.86;74.42;100677.50;6302448;22;20102;-76
2021/11/04 10:14:18;;;;;;;3.63;3.33;;;;;;;9.86;74.18;100680.09;6302482;22;20106;-76
2021/11/04 10:16:44;;;;;;;1.50;1.50;;;;;;;9.76;74.00;100670.94;6303045;22;20463;-76
2021/11/04 10:19:12;;;;;;;1.88;1.77;;;;;;;9.90;73.57;100658.22;6302873;22;20019;-76
2021/11/04 10:21:52;;;;;;;1.70;1.70;;;;;;;10.09;74.08;100669.63;6305272;22;20015;-77
2021/11/04 10:24:23;;;;;;;1.38;1.38;;;;;;;9.94;74.19;100672.84;6303312;22;20046;-79
2021/11/04 10:26:54;;;;;;;2.05;1.95;;;;;;;9.97;73.59;100667.50;6303050;22;20089;-77
2021/11/04 10:29:21;;;;;;;1.88;1.85;;;;;;;9.91;73.58;100665.13;6304375;22;20026;-77
2021/11/04 10:31:49;;;;;;;1.95;1.85;;;;;;;9.90;73.87;100668.66;6303305;22;20022;-77
2021/11/04 10:34:32;;;;;;;3.25;3.05;;;;;;;9.74;74.44;100673.59;6277220;22;20019;-76
2021/11/04 10:37:12;;;;;;;1.42;1.42;;;;;;;9.75;73.73;100671.84;6303776;22;20011;-76
2021/11/04 10:39:39;;;;;;;2.58;2.38;;;;;;;9.64;73.23;100684.44;6277451;22;20034;-75
2021/11/04 10:42:05;;;;;;;3.55;2.05;;;;;;;9.61;73.44;100693.22;6276843;22;20054;-76
2021/11/04 10:44:33;;;;;;;2.17;2.08;;;;;;;9.66;74.01;100699.09;6304500;22;20416;-76
2021/11/04 10:46:59;;;;;;;2.45;2.33;;;;;;;9.63;73.48;100706.19;6302700;22;20370;-74
2021/11/04 10:49:25;;;;;;;1.67;1.67;;;;;;;9.64;74.24;100702.69;6276827;22;20064;-75
2021/11/04 10:52:10;;;;;;;1.80;1.73;;;;;;;9.58;73.44;100702.91;6304318;22;20026;-75
2021/11/04 10:54:46;;;;;;;2.75;2.50;;;;;;;9.59;74.52;100707.19;6277307;22;20019;-75
2021/11/04 10:57:12;;;;;;;2.08;1.98;;;;;;;9.63;73.76;100695.75;6282062;22;20216;-74
2021/11/04 10:59:48;;;;;;;1.60;1.50;;;;;;;9.76;74.03;100697.00;6304487;22;20514;-76
2021/11/04 11:02:17;;;;;;;1.95;1.88;;;;;;;9.93;72.76;100699.81;6310819;22;20015;-75
2021/11/04 11:04:43;;;;;;;1.67;1.58;;;;;;;10.09;73.36;100706.13;6304408;22;20019;-78
2021/11/04 11:07:10;;;;;;;2.15;2.05;;;;;;;9.88;71.96;100707.81;6302435;22;20026;-76
2021/11/04 11:09:39;;;;;;;2.03;1.85;;;;;;;9.97;72.97;100717.06;6302982;22;20029;-77
2021/11/04 11:12:06;;;;;;;0.80;0.80;;;;;;;10.00;72.30;100718.69;6301021;22;20098;-77
2021/11/04 11:14:34;;;;;;;2.80;2.60;;;;;;;10.11;72.86;100722.56;6301908;22;20015;-76
2021/11/04 11:17:00;;;;;;;5.68;3.30;;;;;;;10.17;72.04;100725.00;6302906;22;20015;-76
2021/11/04 11:19:27;;;;;;;2.50;1.95;;;;;;;10.20;71.27;100719.66;6302771;22;20066;-74
2021/11/04 11:21:53;;;;;;;1.98;1.88;;;;;;;10.09;71.79;100729.63;6301029;22;20015;-74
2021/11/04 11:24:38;;;;;;;2.00;1.83;;;;;;;10.03;72.36;100722.03;6275005;22;20046;-74
2021/11/04 11:27:06;;;;;;;1.77;1.67;;;;;;;10.06;71.51;100729.75;6278439;22;20023;-74
2021/11/04 11:29:40;;;;;;;2.53;2.42;;;;;;;9.96;71.37;100723.19;6274463;22;20094;-75
2021/11/04 11:32:17;;;;;;;1.40;1.38;;;;;;;9.94;71.49;100732.84;6275472;22;20829;-76
2021/11/04 11:34:46;;;;;;;1.77;1.67;;;;;;;9.91;71.07;100722.50;6301846;22;20026;-74
2021/11/04 11:37:15;;;;;;;2.45;1.75;;;;;;;9.93;71.06;100746.78;6300243;22;20019;-75
2021/11/04 11:39:52;;;;;;;1.40;1.40;;;;;;;9.90;70.98;100752.09;6306011;22;20128;-75
2021/11/04 11:42:26;;;;;;;2.47;2.28;;;;;;;9.92;72.13;100745.06;6309410;22;20094;-75
2021/11/04 11:44:54;;;;;;;2.38;2.28;;;;;;;9.96;72.74;100757.09;6304944;22;20011;-74
2021/11/04 11:47:32;;;;;;;2.08;1.98;;;;;;;9.99;72.07;100751.75;6301546;22;20019;-73
2021/11/04 11:50:31;;;;;;;4.82;2.75;;;;;;;9.88;72.69;100757.38;6302966;22;20015;-75
2021/11/04 11:53:25;;;;;;;1.92;1.85;;;;;;;9.93;71.46;100746.78;6302537;22;20019;-74
2021/11/04 11:56:01;;;;;;;1.52;1.42;;;;;;;9.84;72.65;100760.16;6284842;22;20027;-75